createdAt,value
2022-12-03T00:00:40.194Z,53.33
2022-12-03T00:03:06.960Z,58.90
2022-12-03T00:05:33.621Z,52.72
2022-12-03T00:08:00.312Z,47.42
2022-12-03T00:10:27.031Z,57.80
2022-12-03T00:12:53.599Z,56.95
2022-12-03T00:15:20.227Z,46.30
2022-12-03T00:17:46.829Z,49.25
2022-12-03T00:20:24.222Z,58.38
2022-12-03T00:22:50.815Z,58.85
2022-12-03T00:25:17.817Z,49.10
2022-12-03T00:27:44.455Z,47.92
2022-12-03T00:30:12.230Z,50.97
2022-12-03T00:32:38.808Z,52.05
2022-12-03T00:35:05.650Z,56.20
2022-12-03T00:37:32.323Z,57.38
2022-12-03T00:39:58.857Z,60.38
2022-12-03T00:42:25.414Z,59.45
2022-12-03T00:44:52.145Z,52.70
2022-12-03T00:47:18.945Z,52.13
2022-12-03T00:49:45.518Z,54.22
2022-12-03T00:52:12.128Z,51.85
2022-12-03T00:54:38.703Z,53.17
2022-12-03T00:57:05.332Z,50.35
2022-12-03T00:59:31.902Z,50.63
2022-12-03T01:01:58.502Z,46.75
2022-12-03T01:04:25.220Z,44.42
2022-12-03T01:06:51.918Z,46.67
2022-12-03T01:09:18.581Z,52.78
2022-12-03T01:11:45.151Z,49.33
2022-12-03T01:14:16.979Z,51.15
2022-12-03T01:16:44.215Z,52.33
2022-12-03T01:19:11.313Z,45.03
2022-12-03T01:21:38.002Z,53.28
2022-12-03T01:24:05.311Z,62.63
2022-12-03T01:26:31.864Z,56.53
2022-12-03T01:28:58.429Z,53.83
2022-12-03T01:31:43.372Z,51.90
2022-12-03T01:34:09.906Z,52.42
2022-12-03T01:36:36.475Z,50.85
2022-12-03T01:39:04.485Z,54.92
2022-12-03T01:41:32.214Z,51.67
2022-12-03T01:44:00.025Z,55.30
2022-12-03T01:46:39.632Z,54.33
2022-12-03T01:49:09.467Z,47.05
2022-12-03T01:51:36.095Z,52.53
2022-12-03T01:54:03.442Z,53.65
2022-12-03T01:56:29.994Z,52.03
2022-12-03T01:58:56.582Z,49.85
2022-12-03T02:01:23.200Z,47.30
2022-12-03T02:03:49.871Z,48.15
2022-12-03T02:06:19.289Z,45.95
2022-12-03T02:08:47.304Z,54.30
2022-12-03T02:11:16.739Z,51.92
2022-12-03T02:13:44.228Z,48.92
2022-12-03T02:16:11.034Z,48.92
2022-12-03T02:18:37.682Z,51.50
2022-12-03T02:21:04.235Z,53.03
2022-12-03T02:23:54.144Z,49.08
2022-12-03T02:26:21.169Z,44.42
2022-12-03T02:28:47.760Z,54.42
2022-12-03T02:31:14.364Z,41.70
2022-12-03T02:33:41.014Z,57.25
2022-12-03T02:36:08.128Z,51.38
2022-12-03T02:38:35.860Z,43.13
2022-12-03T02:41:09.411Z,44.03
2022-12-03T02:43:36.789Z,45.20
2022-12-03T02:46:04.520Z,38.15
2022-12-03T02:48:37.129Z,44.45
2022-12-03T02:51:09.178Z,52.38
2022-12-03T02:53:44.359Z,40.72
2022-12-03T02:56:14.222Z,53.42
2022-12-03T02:58:41.828Z,42.83
2022-12-03T03:01:09.594Z,45.10
2022-12-03T03:03:52.711Z,42.30
2022-12-03T03:06:19.996Z,43.03
2022-12-03T03:08:46.655Z,47.58
2022-12-03T03:11:13.318Z,52.40
2022-12-03T03:13:40.118Z,44.78
2022-12-03T03:16:08.074Z,46.03
2022-12-03T03:18:35.128Z,43.88
2022-12-03T03:21:03.034Z,45.53
2022-12-03T03:23:29.602Z,40.75
2022-12-03T03:26:11.825Z,48.92
2022-12-03T03:28:41.946Z,49.70
2022-12-03T03:31:11.267Z,49.80
2022-12-03T03:33:39.614Z,33.55
2022-12-03T03:36:07.262Z,41.70
2022-12-03T03:38:34.634Z,47.00
2022-12-03T03:41:03.230Z,47.83
2022-12-03T03:43:31.048Z,46.28
2022-12-03T03:45:57.691Z,47.47
2022-12-03T03:48:24.471Z,47.58
2022-12-03T03:50:51.971Z,49.15
2022-12-03T03:53:20.100Z,47.67
2022-12-03T03:55:46.987Z,41.45
2022-12-03T03:58:13.877Z,44.20
2022-12-03T04:00:43.987Z,41.22
2022-12-03T04:03:11.242Z,47.20
2022-12-03T04:05:38.041Z,46.58
2022-12-03T04:08:04.960Z,44.90
2022-12-03T04:10:49.813Z,38.15
2022-12-03T04:13:16.360Z,37.42
2022-12-03T04:15:42.894Z,41.15
2022-12-03T04:18:28.026Z,39.55
2022-12-03T04:21:17.165Z,45.45
2022-12-03T04:23:43.724Z,41.10
2022-12-03T04:26:28.835Z,44.53
2022-12-03T04:28:55.868Z,40.45
2022-12-03T04:31:40.844Z,36.28
2022-12-03T04:34:27.235Z,41.08
2022-12-03T04:36:53.817Z,39.45
2022-12-03T04:39:21.163Z,41.70
2022-12-03T04:41:47.853Z,42.05
2022-12-03T04:44:32.803Z,38.65
2022-12-03T04:47:06.915Z,38.90
2022-12-03T04:49:34.346Z,38.83
2022-12-03T04:52:00.960Z,41.38
2022-12-03T04:54:28.254Z,36.72
2022-12-03T04:56:54.874Z,37.78
2022-12-03T04:59:21.620Z,39.70
2022-12-03T05:01:48.293Z,39.67
2022-12-03T05:04:15.414Z,21.85
2022-12-03T05:06:42.176Z,37.63
2022-12-03T05:09:09.252Z,39.42
2022-12-03T05:11:35.819Z,40.33
2022-12-03T05:14:02.463Z,38.10
2022-12-03T05:16:29.192Z,43.08
2022-12-03T05:18:55.813Z,42.63
2022-12-03T05:21:22.479Z,35.88
2022-12-03T05:23:49.017Z,36.38
2022-12-03T05:26:15.792Z,40.40
2022-12-03T05:28:42.295Z,38.75
2022-12-03T05:31:09.115Z,39.28
2022-12-03T05:33:40.883Z,40.58
2022-12-03T05:36:10.408Z,38.67
2022-12-03T05:38:36.959Z,38.80
2022-12-03T05:41:23.531Z,42.17
2022-12-03T05:43:50.071Z,36.33
2022-12-03T05:46:16.708Z,38.60
2022-12-03T05:48:43.311Z,33.63
2022-12-03T05:51:09.781Z,40.15
2022-12-03T05:53:36.322Z,39.28
2022-12-03T05:56:02.824Z,39.17
2022-12-03T05:58:29.350Z,43.30
2022-12-03T06:00:55.855Z,35.78
2022-12-03T06:03:22.491Z,42.80
2022-12-03T06:05:49.107Z,38.65
2022-12-03T06:08:15.678Z,40.65
2022-12-03T06:10:42.277Z,43.03
2022-12-03T06:13:08.938Z,41.00
2022-12-03T06:15:41.980Z,40.38
2022-12-03T06:18:10.173Z,34.33
2022-12-03T06:20:36.684Z,40.05
2022-12-03T06:23:03.351Z,36.95
2022-12-03T06:25:29.906Z,40.15
2022-12-03T06:27:56.456Z,39.50
2022-12-03T06:30:22.991Z,38.22
2022-12-03T06:32:49.581Z,42.63
2022-12-03T06:35:16.120Z,43.53
2022-12-03T06:37:42.605Z,44.25
2022-12-03T06:40:09.604Z,42.42
2022-12-03T06:42:36.167Z,38.45
2022-12-03T06:45:03.443Z,45.28
2022-12-03T06:47:29.933Z,41.60
2022-12-03T06:49:56.469Z,43.42
2022-12-03T06:52:23.041Z,42.95
2022-12-03T06:54:49.557Z,45.20
2022-12-03T06:57:16.376Z,43.53
2022-12-03T06:59:42.918Z,39.08
2022-12-03T07:02:11.254Z,44.33
2022-12-03T07:04:42.018Z,45.35
2022-12-03T07:07:11.445Z,38.88
2022-12-03T07:09:37.965Z,35.97
2022-12-03T07:12:04.710Z,38.95
2022-12-03T07:14:31.307Z,44.30
2022-12-03T07:16:57.833Z,42.75
2022-12-03T07:19:30.667Z,36.17
2022-12-03T07:21:58.989Z,43.53
2022-12-03T07:24:25.603Z,38.63
2022-12-03T07:26:52.211Z,37.20
2022-12-03T07:29:18.740Z,34.63
2022-12-03T07:31:45.312Z,35.78
2022-12-03T07:34:12.020Z,40.30
2022-12-03T07:36:38.607Z,39.28
2022-12-03T07:39:05.412Z,38.35
2022-12-03T07:41:32.102Z,32.50
2022-12-03T07:43:58.638Z,38.38
2022-12-03T07:46:25.234Z,36.35
2022-12-03T07:48:51.776Z,36.20
2022-12-03T07:51:18.314Z,38.78
2022-12-03T07:53:44.856Z,39.45
2022-12-03T07:56:11.421Z,35.50
2022-12-03T07:58:37.930Z,42.30
2022-12-03T08:01:04.637Z,39.22
2022-12-03T08:03:31.238Z,34.53
2022-12-03T08:05:57.804Z,35.90
2022-12-03T08:08:24.481Z,36.70
2022-12-03T08:10:50.968Z,39.63
2022-12-03T08:13:18.983Z,37.17
2022-12-03T08:15:46.025Z,38.85
2022-12-03T08:18:22.434Z,36.63
2022-12-03T08:20:51.939Z,43.38
2022-12-03T08:23:19.859Z,37.80
2022-12-03T08:25:48.746Z,39.55
2022-12-03T08:28:17.097Z,35.25
2022-12-03T08:30:45.174Z,34.47
2022-12-03T08:33:20.366Z,38.00
2022-12-03T08:35:51.000Z,47.72
2022-12-03T08:38:22.224Z,37.15
2022-12-03T08:40:51.466Z,37.78
2022-12-03T08:43:29.302Z,35.85
2022-12-03T08:45:57.435Z,35.70
2022-12-03T08:48:36.775Z,41.33
2022-12-03T08:51:11.254Z,35.50
2022-12-03T08:54:12.760Z,37.92
2022-12-03T08:56:39.526Z,35.90
2022-12-03T08:59:25.404Z,36.00
2022-12-03T09:01:53.778Z,45.22
2022-12-03T09:04:29.189Z,38.20
2022-12-03T09:06:56.298Z,41.72
2022-12-03T09:09:23.960Z,41.33
2022-12-03T09:11:51.108Z,47.50
2022-12-03T09:14:21.099Z,43.85
2022-12-03T09:16:48.380Z,34.28
2022-12-03T09:19:15.501Z,39.17
2022-12-03T09:21:42.076Z,41.10
2022-12-03T09:24:08.777Z,39.83
2022-12-03T09:26:35.447Z,44.30
2022-12-03T09:29:05.327Z,36.53
2022-12-03T09:31:35.733Z,39.85
2022-12-03T09:34:03.562Z,45.25
2022-12-03T09:36:30.160Z,39.45
2022-12-03T09:38:57.198Z,37.63
2022-12-03T09:41:25.121Z,41.95
2022-12-03T09:44:15.522Z,43.83
2022-12-03T09:46:40.810Z,44.80
2022-12-03T09:49:15.779Z,43.22
2022-12-03T09:51:49.511Z,41.80
2022-12-03T09:54:26.343Z,43.38
2022-12-03T09:56:54.918Z,39.88
2022-12-03T09:59:26.061Z,44.88
2022-12-03T10:01:54.425Z,42.53
2022-12-03T10:04:21.621Z,44.92
2022-12-03T10:06:48.422Z,38.83
2022-12-03T10:09:22.473Z,48.03
2022-12-03T10:11:49.410Z,42.85
2022-12-03T10:14:18.614Z,42.10
2022-12-03T10:16:46.090Z,39.67
2022-12-03T10:19:29.315Z,41.20
2022-12-03T10:21:56.010Z,43.95
2022-12-03T10:24:34.183Z,39.22
2022-12-03T10:27:03.271Z,41.10
2022-12-03T10:29:34.404Z,49.03
2022-12-03T10:32:07.807Z,45.35
2022-12-03T10:34:37.538Z,42.22
2022-12-03T10:39:58.544Z,44.08
2022-12-03T10:42:32.198Z,46.65
2022-12-03T10:45:19.731Z,42.78
2022-12-03T10:48:02.300Z,42.83
2022-12-03T10:50:29.186Z,41.70
2022-12-03T10:52:56.003Z,40.25
2022-12-03T10:55:22.723Z,41.45
2022-12-03T10:57:49.502Z,43.83
2022-12-03T11:00:19.829Z,46.47
2022-12-03T11:02:56.074Z,47.70
2022-12-03T11:05:29.235Z,49.10
2022-12-03T11:07:56.851Z,47.13
2022-12-03T11:10:23.862Z,45.50
2022-12-03T11:13:27.636Z,44.13
2022-12-03T11:15:54.651Z,44.58
2022-12-03T11:18:50.664Z,43.17
2022-12-03T11:21:17.257Z,48.55
2022-12-03T11:23:47.009Z,48.13
2022-12-03T11:26:19.759Z,44.50
2022-12-03T11:28:46.594Z,45.10
2022-12-03T11:31:42.889Z,44.28
2022-12-03T11:34:18.684Z,39.30
2022-12-03T11:37:10.338Z,44.95
2022-12-03T11:39:52.959Z,43.63
2022-12-03T11:42:25.705Z,43.65
2022-12-03T11:45:04.647Z,47.95
2022-12-03T11:47:31.304Z,47.90
2022-12-03T11:49:58.170Z,49.05
2022-12-03T11:52:39.993Z,42.80
2022-12-03T11:55:30.339Z,46.75
2022-12-03T11:58:00.816Z,44.35
2022-12-03T12:00:27.760Z,48.10
2022-12-03T12:02:56.182Z,43.45
2022-12-03T12:05:32.689Z,43.75
2022-12-03T12:08:01.671Z,45.55
2022-12-03T12:10:47.587Z,41.78
2022-12-03T12:13:30.472Z,47.85
2022-12-03T12:16:07.531Z,45.92
2022-12-03T12:18:53.683Z,48.45
2022-12-03T12:21:42.127Z,44.10
2022-12-03T12:24:30.914Z,41.72
2022-12-03T12:27:04.466Z,40.70
2022-12-03T12:29:31.468Z,43.38
2022-12-03T12:32:15.277Z,38.78
2022-12-03T12:34:50.448Z,48.08
2022-12-03T12:37:47.337Z,49.85
2022-12-03T12:40:17.777Z,46.13
2022-12-03T12:42:57.917Z,46.78
2022-12-03T12:45:30.290Z,44.83
2022-12-03T12:48:31.218Z,49.25
2022-12-03T12:51:12.880Z,47.78
2022-12-03T12:53:42.940Z,41.10
2022-12-03T12:56:32.143Z,50.25
2022-12-03T12:59:09.624Z,47.88
2022-12-03T13:01:37.323Z,48.10
2022-12-03T13:04:11.707Z,45.00
2022-12-03T13:06:38.715Z,41.55
2022-12-03T13:09:14.580Z,47.60
2022-12-03T13:11:45.692Z,51.83
2022-12-03T13:14:17.456Z,52.03
2022-12-03T13:16:44.620Z,51.90
2022-12-03T13:19:24.759Z,45.97
2022-12-03T13:21:53.932Z,51.88
2022-12-03T13:24:37.495Z,51.20
2022-12-03T13:27:16.313Z,53.33
2022-12-03T13:29:43.562Z,46.33
2022-12-03T13:32:20.633Z,47.80
2022-12-03T13:34:48.255Z,48.60
2022-12-03T13:37:19.938Z,47.53
2022-12-03T13:39:51.143Z,50.30
2022-12-03T13:42:45.218Z,48.92
2022-12-03T13:45:14.969Z,50.03
2022-12-03T13:47:46.550Z,41.28
2022-12-03T13:50:38.880Z,48.10
2022-12-03T13:53:11.502Z,50.20
2022-12-03T13:55:46.470Z,47.90
2022-12-03T13:58:13.506Z,44.30
2022-12-03T14:00:40.104Z,42.13
2022-12-03T14:03:06.940Z,44.92
2022-12-03T14:05:33.598Z,43.30
2022-12-03T14:08:02.297Z,47.40
2022-12-03T14:10:29.735Z,38.78
2022-12-03T14:12:56.560Z,48.03
2022-12-03T14:15:23.409Z,40.13
2022-12-03T14:17:49.904Z,43.78
2022-12-03T14:20:16.521Z,45.38
2022-12-03T14:22:43.212Z,48.50
2022-12-03T14:25:10.822Z,40.95
2022-12-03T14:27:37.816Z,38.85
2022-12-03T14:30:05.260Z,42.53
2022-12-03T14:32:31.917Z,41.00
2022-12-03T14:34:58.565Z,35.53
2022-12-03T14:37:25.171Z,42.60
2022-12-03T14:39:52.283Z,46.70
2022-12-03T14:42:19.266Z,47.20
2022-12-03T14:44:48.351Z,47.15
2022-12-03T14:47:18.042Z,40.72
2022-12-03T14:52:12.846Z,26.45
2022-12-03T14:54:42.458Z,29.92
2022-12-03T14:57:11.546Z,28.80
2022-12-03T14:59:39.311Z,24.70
2022-12-03T15:02:05.958Z,28.98
2022-12-03T15:04:32.548Z,26.48
2022-12-03T15:06:59.392Z,26.42
2022-12-03T15:09:26.004Z,24.77
2022-12-03T15:11:52.624Z,27.88
2022-12-03T15:14:19.184Z,27.45
2022-12-03T15:16:45.888Z,24.05
2022-12-03T15:19:12.665Z,30.67
2022-12-03T15:21:39.245Z,27.48
2022-12-03T15:24:06.186Z,30.33
2022-12-03T15:26:32.785Z,29.42
2022-12-03T15:28:59.482Z,28.27
2022-12-03T15:31:26.083Z,33.38
2022-12-03T15:33:52.661Z,37.03
2022-12-03T15:36:19.267Z,36.28
2022-12-03T15:38:45.887Z,35.72
2022-12-03T15:41:21.701Z,41.10
2022-12-03T15:46:22.679Z,34.03
2022-12-03T15:48:49.697Z,46.67
2022-12-03T15:51:16.299Z,46.17
2022-12-03T15:53:43.089Z,39.17
2022-12-03T15:56:11.845Z,45.33
2022-12-03T15:58:39.640Z,44.22
2022-12-03T16:01:06.887Z,48.33
2022-12-03T16:03:33.491Z,43.03
2022-12-03T16:06:00.039Z,47.30
2022-12-03T16:08:27.036Z,41.95
2022-12-03T16:10:53.739Z,40.42
2022-12-03T16:13:20.254Z,45.72
2022-12-03T16:15:46.973Z,42.70
2022-12-03T16:18:13.560Z,45.95
2022-12-03T16:20:40.121Z,42.08
2022-12-03T16:23:11.362Z,42.22
2022-12-03T16:25:38.464Z,40.83
2022-12-03T16:28:05.152Z,40.08
2022-12-03T16:30:31.820Z,42.95
2022-12-03T16:32:58.451Z,46.47
2022-12-03T16:35:25.030Z,50.13
2022-12-03T16:37:51.665Z,52.95
2022-12-03T16:40:18.345Z,50.33
2022-12-03T16:42:44.905Z,46.33
2022-12-03T16:45:23.136Z,48.97
2022-12-03T16:47:50.307Z,50.65
2022-12-03T16:50:24.461Z,47.45
2022-12-03T16:52:56.211Z,47.22
2022-12-03T16:55:23.069Z,52.35
2022-12-03T16:57:51.576Z,51.50
2022-12-03T17:00:18.724Z,42.33
2022-12-03T17:02:45.476Z,46.90
2022-12-03T17:05:12.262Z,42.58
2022-12-03T17:07:39.231Z,50.83
2022-12-03T17:10:06.862Z,47.72
2022-12-03T17:13:01.127Z,49.20
2022-12-03T17:15:20.208Z,52.22
2022-12-03T17:17:46.812Z,46.13
2022-12-03T17:20:14.720Z,53.85
2022-12-03T17:22:41.686Z,50.17
2022-12-03T17:25:08.997Z,46.55
2022-12-03T17:27:37.026Z,47.40
2022-12-03T17:32:32.393Z,39.70
2022-12-03T17:34:58.970Z,47.15
2022-12-03T17:37:25.759Z,50.92
2022-12-03T17:39:52.794Z,51.00
2022-12-03T17:42:20.237Z,53.38
2022-12-03T17:44:46.998Z,54.95
2022-12-03T17:47:13.581Z,50.70
2022-12-03T17:49:40.283Z,63.28
2022-12-03T17:52:07.087Z,50.33
2022-12-03T17:54:55.091Z,51.67
2022-12-03T17:57:20.278Z,44.10
2022-12-03T17:59:46.945Z,47.70
2022-12-03T18:02:13.931Z,47.88
2022-12-03T18:04:40.509Z,49.30
2022-12-03T18:07:07.284Z,45.72
2022-12-03T18:09:33.819Z,46.22
2022-12-03T18:12:00.385Z,49.70
2022-12-03T18:14:26.999Z,52.05
2022-12-03T18:16:53.664Z,50.10
2022-12-03T18:19:22.068Z,46.72
2022-12-03T18:21:48.646Z,46.65
2022-12-03T18:24:15.352Z,49.15
2022-12-03T18:26:43.491Z,47.67
2022-12-03T18:29:10.028Z,53.30
2022-12-03T18:31:36.803Z,49.35
2022-12-03T18:34:03.536Z,45.80
2022-12-03T18:36:35.128Z,47.83
2022-12-03T18:39:02.835Z,48.22
2022-12-03T18:41:29.666Z,49.22
2022-12-03T18:43:56.299Z,43.30
2022-12-03T18:46:51.871Z,47.30
2022-12-03T18:49:10.820Z,40.65
2022-12-03T18:51:37.764Z,45.88
2022-12-03T18:54:04.512Z,48.47
2022-12-03T18:56:31.059Z,48.92
2022-12-03T18:58:57.584Z,47.22
2022-12-03T19:01:25.605Z,44.17
2022-12-03T19:03:53.742Z,48.72
2022-12-03T19:06:21.402Z,43.00
2022-12-03T19:08:49.528Z,41.85
2022-12-03T19:11:16.166Z,41.95
2022-12-03T19:13:43.022Z,43.42
2022-12-03T19:16:10.788Z,45.25
2022-12-03T19:18:37.850Z,42.88
2022-12-03T19:21:12.371Z,45.28
2022-12-03T19:23:39.541Z,40.60
2022-12-03T19:26:08.256Z,47.90
2022-12-03T19:28:35.225Z,41.22
2022-12-03T19:31:14.090Z,42.70
2022-12-03T19:33:42.684Z,43.72
2022-12-03T19:36:28.242Z,46.88
2022-12-03T19:38:57.599Z,45.00
2022-12-03T19:41:27.434Z,44.55
2022-12-03T19:43:55.498Z,47.28
2022-12-03T19:46:24.488Z,46.25
2022-12-03T19:48:51.447Z,42.97
2022-12-03T19:51:34.247Z,46.97
2022-12-03T19:54:09.396Z,46.33
2022-12-03T19:56:36.093Z,46.00
2022-12-03T19:59:05.769Z,42.90
2022-12-03T20:01:35.345Z,47.08
2022-12-03T20:06:33.915Z,44.50
2022-12-03T20:09:12.058Z,45.50
2022-12-03T20:11:41.591Z,45.00
2022-12-03T20:14:16.680Z,44.17
2022-12-03T20:16:44.932Z,43.30
2022-12-03T20:19:13.773Z,47.42
2022-12-03T20:21:41.165Z,42.03
2022-12-03T20:24:10.414Z,40.70
2022-12-03T20:26:37.001Z,44.35
2022-12-03T20:29:06.544Z,42.92
2022-12-03T20:31:33.523Z,40.58
2022-12-03T20:34:02.490Z,44.38
2022-12-03T20:36:30.913Z,44.13
2022-12-03T20:38:59.991Z,45.97
2022-12-03T20:41:27.011Z,47.78
2022-12-03T20:43:53.951Z,42.72
2022-12-03T20:46:25.546Z,46.40
2022-12-03T20:48:53.992Z,43.55
2022-12-03T20:51:23.119Z,43.80
2022-12-03T20:53:50.269Z,43.83
2022-12-03T20:56:20.713Z,44.13
2022-12-03T20:58:48.901Z,52.60
2022-12-03T21:01:16.732Z,52.47
2022-12-03T21:03:44.861Z,48.75
2022-12-03T21:06:12.845Z,53.28
2022-12-03T21:08:42.431Z,49.90
2022-12-03T21:11:14.206Z,55.40
2022-12-03T21:13:44.165Z,48.17
2022-12-03T21:16:39.406Z,55.45
2022-12-03T21:19:09.824Z,44.90
2022-12-03T21:21:36.492Z,52.42
2022-12-03T21:24:03.168Z,53.53
2022-12-03T21:26:29.777Z,54.67
2022-12-03T21:28:56.440Z,52.55
2022-12-03T21:31:26.140Z,46.50
2022-12-03T21:33:57.565Z,56.83
2022-12-03T21:36:25.469Z,52.50
2022-12-03T21:38:52.352Z,66.72
2022-12-03T21:41:19.247Z,55.28
2022-12-03T21:43:45.937Z,62.05
2022-12-03T21:47:09.314Z,63.20
2022-12-03T21:49:04.641Z,62.47
2022-12-03T21:51:31.349Z,59.92
2022-12-03T21:53:57.944Z,52.65
2022-12-03T21:56:24.749Z,69.10
2022-12-03T21:58:51.527Z,55.83
2022-12-03T22:01:21.388Z,67.65
2022-12-03T22:03:48.293Z,71.38
2022-12-03T22:06:15.198Z,126.80
2022-12-03T22:08:42.136Z,48.80
2022-12-03T22:11:17.655Z,46.55
2022-12-03T22:13:44.653Z,50.92
2022-12-03T22:16:14.765Z,55.58
2022-12-03T22:18:41.533Z,55.75
2022-12-03T22:21:10.682Z,58.33
2022-12-03T22:23:37.490Z,60.33
2022-12-03T22:26:07.118Z,61.65
2022-12-03T22:28:34.534Z,60.50
2022-12-03T22:31:06.658Z,60.45
2022-12-03T22:33:33.525Z,60.15
2022-12-03T22:36:04.823Z,67.43
2022-12-03T22:38:32.634Z,58.63
2022-12-03T22:40:59.585Z,62.67
2022-12-03T22:43:26.382Z,67.57
2022-12-03T22:45:54.773Z,68.07
2022-12-03T22:48:22.461Z,59.25
2022-12-03T22:50:50.918Z,64.57
2022-12-03T22:53:18.592Z,67.07
2022-12-03T22:55:45.541Z,60.25
2022-12-03T22:58:15.248Z,70.20
2022-12-03T23:00:42.083Z,64.85
2022-12-03T23:03:09.072Z,63.03
2022-12-03T23:05:38.706Z,68.13
2022-12-03T23:10:40.978Z,59.70
2022-12-03T23:13:09.642Z,65.70
2022-12-03T23:15:43.918Z,73.80
2022-12-03T23:18:10.478Z,71.18
2022-12-03T23:20:43.054Z,65.28
2022-12-03T23:23:09.880Z,71.75
2022-12-03T23:25:37.317Z,53.35
2022-12-03T23:28:08.817Z,64.60
2022-12-03T23:30:37.608Z,64.38
2022-12-03T23:33:08.585Z,66.15
2022-12-03T23:35:35.261Z,59.85
2022-12-03T23:38:01.811Z,62.38
2022-12-03T23:40:28.409Z,66.68
2022-12-03T23:42:55.116Z,68.82
2022-12-03T23:45:21.847Z,67.00
2022-12-03T23:47:49.748Z,61.72
2022-12-03T23:50:17.904Z,67.65
2022-12-03T23:52:44.462Z,57.63
2022-12-03T23:55:11.031Z,59.15
2022-12-03T23:57:37.588Z,61.20
